AUA730 LQSA-LOWW
Flight info
| Callsign | AUA730 |
|---|---|
| Flight time | 0h 57m |
| Altitude | 32000 |
| Route | BOSNA DCT IRDIV DCT NOVLO DCT ZAG DCT OBUTI OBUTI2W |
| Aircraft | A320/M-SDE3FGHIRWY/LB1 |
Departure
| Time | 2026-05-04 12:57 |
|---|---|
| Airport | Sarajevo International Airport (LQSA) |
Arrival
| Time | 2026-05-04 13:54 |
|---|---|
| Airport | Vienna International Airport (LOWW) |
| Time | Latitude | Longitude | Altitude | Speed | Heading |
|---|---|---|---|---|---|
| 2026-05-04 12:35 | 43.82517 | 18.33686 | 1687 ft | 0 kts | 28° |
| 2026-05-04 12:36 | 43.82518 | 18.33687 | 1687 ft | 0 kts | 28° |
| 2026-05-04 12:51 | 43.82501 | 18.33673 | 1688 ft | 4 kts | 36° |
| 2026-05-04 12:51 | 43.82481 | 18.33649 | 1692 ft | 4 kts | 55° |
| 2026-05-04 12:51 | 43.82474 | 18.33634 | 1685 ft | 0 kts | 62° |
| 2026-05-04 12:53 | 43.82476 | 18.33643 | 1685 ft | 5 kts | 79° |
| 2026-05-04 12:54 | 43.82456 | 18.33676 | 1684 ft | 6 kts | 137° |
| 2026-05-04 12:54 | 43.82413 | 18.33745 | 1686 ft | 9 kts | 118° |
| 2026-05-04 12:54 | 43.82375 | 18.33847 | 1689 ft | 16 kts | 117° |
| 2026-05-04 12:54 | 43.82329 | 18.33971 | 1692 ft | 13 kts | 117° |
| 2026-05-04 12:55 | 43.82272 | 18.34122 | 1694 ft | 20 kts | 117° |
| 2026-05-04 12:55 | 43.82213 | 18.34278 | 1698 ft | 17 kts | 118° |
| 2026-05-04 12:55 | 43.82164 | 18.34412 | 1702 ft | 14 kts | 117° |
| 2026-05-04 12:55 | 43.82124 | 18.34518 | 1706 ft | 11 kts | 117° |
| 2026-05-04 12:56 | 43.82083 | 18.34604 | 1707 ft | 9 kts | 139° |
| 2026-05-04 12:56 | 43.82027 | 18.34628 | 1708 ft | 9 kts | 181° |
| 2026-05-04 12:56 | 43.81972 | 18.34602 | 1707 ft | 9 kts | 207° |
| 2026-05-04 12:56 | 43.81935 | 18.34544 | 1707 ft | 9 kts | 279° |
| 2026-05-04 12:57 | 43.81982 | 18.34419 | 1701 ft | 33 kts | 297° |
| 2026-05-04 12:57 | 43.82213 | 18.33805 | 1690 ft | 106 kts | 297° |
| 2026-05-04 12:57 | 43.82653 | 18.32649 | 1691 ft | 159 kts | 297° |
| 2026-05-04 12:57 | 43.83167 | 18.31297 | 2331 ft | 159 kts | 302° |
| 2026-05-04 12:58 | 43.83977 | 18.30338 | 2951 ft | 157 kts | 346° |
| 2026-05-04 12:58 | 43.85075 | 18.29989 | 3364 ft | 171 kts | 346° |
| 2026-05-04 12:58 | 43.86298 | 18.29519 | 3635 ft | 194 kts | 345° |
| 2026-05-04 12:58 | 43.87666 | 18.28958 | 3875 ft | 217 kts | 343° |
| 2026-05-04 12:59 | 43.89180 | 18.28325 | 4237 ft | 238 kts | 343° |
| 2026-05-04 12:59 | 43.90802 | 18.27642 | 4897 ft | 246 kts | 343° |
| 2026-05-04 12:59 | 43.92448 | 18.26944 | 5720 ft | 249 kts | 343° |
| 2026-05-04 12:59 | 43.94117 | 18.26231 | 6555 ft | 252 kts | 343° |
| 2026-05-04 13:00 | 43.95830 | 18.25655 | 7340 ft | 257 kts | 353° |
| 2026-05-04 13:00 | 43.97685 | 18.25389 | 7835 ft | 275 kts | 355° |
| 2026-05-04 13:00 | 43.99607 | 18.25139 | 8619 ft | 280 kts | 355° |
| 2026-05-04 13:00 | 44.01560 | 18.24891 | 9471 ft | 283 kts | 355° |
| 2026-05-04 13:01 | 44.03506 | 18.24645 | 10269 ft | 286 kts | 355° |
| 2026-05-04 13:01 | 44.05470 | 18.24115 | 11026 ft | 291 kts | 341° |
| 2026-05-04 13:01 | 44.07297 | 18.22847 | 11651 ft | 302 kts | 327° |
| 2026-05-04 13:01 | 44.08901 | 18.20800 | 11869 ft | 327 kts | 312° |
| 2026-05-04 13:02 | 44.10433 | 18.18349 | 12247 ft | 342 kts | 312° |
| 2026-05-04 13:02 | 44.12009 | 18.15825 | 12915 ft | 348 kts | 312° |
| 2026-05-04 13:02 | 44.13608 | 18.13273 | 13627 ft | 352 kts | 313° |
| 2026-05-04 13:02 | 44.15227 | 18.10698 | 14283 ft | 356 kts | 313° |
| 2026-05-04 13:03 | 44.16870 | 18.08094 | 14911 ft | 359 kts | 313° |
| 2026-05-04 13:03 | 44.18528 | 18.05470 | 15565 ft | 362 kts | 313° |
| 2026-05-04 13:03 | 44.20176 | 18.02861 | 16212 ft | 365 kts | 313° |
| 2026-05-04 13:03 | 44.21859 | 18.00192 | 16860 ft | 368 kts | 313° |
| 2026-05-04 13:04 | 44.23550 | 17.97504 | 17516 ft | 370 kts | 313° |
| 2026-05-04 13:04 | 44.25253 | 17.94791 | 18131 ft | 373 kts | 313° |
| 2026-05-04 13:04 | 44.26968 | 17.92061 | 18723 ft | 376 kts | 313° |
| 2026-05-04 13:04 | 44.28720 | 17.89275 | 19303 ft | 378 kts | 313° |
| 2026-05-04 13:05 | 44.30437 | 17.86546 | 19831 ft | 380 kts | 313° |
| 2026-05-04 13:05 | 44.32186 | 17.83756 | 20383 ft | 383 kts | 313° |
| 2026-05-04 13:05 | 44.33945 | 17.80944 | 20921 ft | 386 kts | 312° |
| 2026-05-04 13:05 | 44.35719 | 17.78106 | 21454 ft | 389 kts | 313° |
| 2026-05-04 13:06 | 44.37679 | 17.75489 | 21998 ft | 391 kts | 323° |
| 2026-05-04 13:06 | 44.39921 | 17.73327 | 22538 ft | 393 kts | 328° |
| 2026-05-04 13:06 | 44.42217 | 17.71223 | 23073 ft | 396 kts | 327° |
| 2026-05-04 13:06 | 44.44522 | 17.69096 | 23590 ft | 399 kts | 327° |
| 2026-05-04 13:07 | 44.46841 | 17.66945 | 24024 ft | 401 kts | 327° |
| 2026-05-04 13:07 | 44.49167 | 17.64781 | 24454 ft | 403 kts | 327° |
| 2026-05-04 13:07 | 44.51507 | 17.62604 | 24883 ft | 404 kts | 327° |
| 2026-05-04 13:07 | 44.53854 | 17.60423 | 25313 ft | 406 kts | 327° |
| 2026-05-04 13:08 | 44.56215 | 17.58230 | 25717 ft | 407 kts | 327° |
| 2026-05-04 13:08 | 44.58581 | 17.56032 | 26081 ft | 409 kts | 327° |
| 2026-05-04 13:08 | 44.60963 | 17.53817 | 26462 ft | 411 kts | 327° |
| 2026-05-04 13:08 | 44.63352 | 17.51589 | 26828 ft | 413 kts | 327° |
| 2026-05-04 13:09 | 44.65750 | 17.49348 | 27201 ft | 415 kts | 327° |
| 2026-05-04 13:09 | 44.68158 | 17.47096 | 27561 ft | 417 kts | 327° |
| 2026-05-04 13:09 | 44.70579 | 17.44832 | 27923 ft | 418 kts | 327° |
| 2026-05-04 13:09 | 44.73006 | 17.42562 | 28283 ft | 420 kts | 327° |
| 2026-05-04 13:10 | 44.75445 | 17.40282 | 28638 ft | 422 kts | 327° |
| 2026-05-04 13:10 | 44.77893 | 17.37996 | 28982 ft | 423 kts | 327° |
| 2026-05-04 13:10 | 44.80346 | 17.35699 | 29304 ft | 425 kts | 326° |
| 2026-05-04 13:10 | 44.82807 | 17.33385 | 29617 ft | 426 kts | 326° |
| 2026-05-04 13:11 | 44.85278 | 17.31055 | 29907 ft | 429 kts | 326° |
| 2026-05-04 13:11 | 44.87759 | 17.28713 | 30181 ft | 430 kts | 326° |
| 2026-05-04 13:11 | 44.90253 | 17.26359 | 30421 ft | 432 kts | 326° |
| 2026-05-04 13:11 | 44.92755 | 17.23999 | 30668 ft | 433 kts | 326° |
| 2026-05-04 13:12 | 44.95260 | 17.21632 | 30899 ft | 434 kts | 326° |
| 2026-05-04 13:12 | 44.97776 | 17.19254 | 31118 ft | 436 kts | 326° |
| 2026-05-04 13:12 | 45.00297 | 17.16869 | 31365 ft | 436 kts | 326° |
| 2026-05-04 13:12 | 45.02811 | 17.14486 | 31682 ft | 434 kts | 326° |
| 2026-05-04 13:13 | 45.05317 | 17.12111 | 31981 ft | 434 kts | 326° |
| 2026-05-04 13:13 | 45.10254 | 17.07419 | 32074 ft | 420 kts | 326° |
| 2026-05-04 13:14 | 45.15070 | 17.02834 | 32072 ft | 416 kts | 326° |
| 2026-05-04 13:14 | 45.19862 | 16.98253 | 32071 ft | 415 kts | 326° |
| 2026-05-04 13:15 | 45.24653 | 16.93663 | 32070 ft | 415 kts | 326° |
| 2026-05-04 13:15 | 45.29441 | 16.89075 | 32067 ft | 415 kts | 326° |
| 2026-05-04 13:16 | 45.34230 | 16.84481 | 32062 ft | 415 kts | 326° |
| 2026-05-04 13:16 | 45.38988 | 16.79904 | 32056 ft | 416 kts | 326° |
| 2026-05-04 13:17 | 45.43780 | 16.75291 | 32056 ft | 416 kts | 326° |
| 2026-05-04 13:17 | 45.48576 | 16.70667 | 32053 ft | 416 kts | 326° |
| 2026-05-04 13:18 | 45.53364 | 16.66022 | 32057 ft | 416 kts | 326° |
| 2026-05-04 13:18 | 45.58152 | 16.61372 | 32059 ft | 416 kts | 326° |
| 2026-05-04 13:19 | 45.62941 | 16.56714 | 32043 ft | 417 kts | 325° |
| 2026-05-04 13:19 | 45.67736 | 16.52048 | 32043 ft | 417 kts | 325° |
| 2026-05-04 13:20 | 45.72534 | 16.47369 | 32044 ft | 417 kts | 325° |
| 2026-05-04 13:20 | 45.77331 | 16.42676 | 32047 ft | 418 kts | 325° |
| 2026-05-04 13:21 | 45.82125 | 16.37974 | 32051 ft | 418 kts | 325° |
| 2026-05-04 13:21 | 45.86961 | 16.33355 | 32045 ft | 418 kts | 331° |
| 2026-05-04 13:22 | 45.92454 | 16.30650 | 32038 ft | 421 kts | 350° |
| 2026-05-04 13:22 | 45.98303 | 16.30092 | 32038 ft | 422 kts | 356° |
| 2026-05-04 13:23 | 46.04178 | 16.29684 | 32040 ft | 423 kts | 355° |
| 2026-05-04 13:23 | 46.10020 | 16.29281 | 32040 ft | 423 kts | 356° |
| 2026-05-04 13:24 | 46.15901 | 16.28883 | 32040 ft | 423 kts | 356° |
| 2026-05-04 13:24 | 46.21788 | 16.28487 | 32046 ft | 423 kts | 355° |
| 2026-05-04 13:25 | 46.30617 | 16.27896 | 32044 ft | 423 kts | 356° |
| 2026-05-04 13:25 | 46.36504 | 16.27491 | 32046 ft | 423 kts | 355° |
| 2026-05-04 13:26 | 46.42315 | 16.26345 | 31853 ft | 421 kts | 349° |
| 2026-05-04 13:26 | 46.45202 | 16.25661 | 31731 ft | 419 kts | 349° |
| 2026-05-04 13:26 | 46.48079 | 16.24979 | 31602 ft | 418 kts | 349° |
| 2026-05-04 13:27 | 46.50947 | 16.24299 | 31474 ft | 417 kts | 349° |
| 2026-05-04 13:27 | 46.53813 | 16.23618 | 31343 ft | 418 kts | 349° |
| 2026-05-04 13:27 | 46.56675 | 16.22940 | 31222 ft | 416 kts | 349° |
| 2026-05-04 13:27 | 46.59525 | 16.22264 | 31092 ft | 414 kts | 349° |
| 2026-05-04 13:28 | 46.62374 | 16.21588 | 30904 ft | 415 kts | 349° |
| 2026-05-04 13:28 | 46.65216 | 16.20912 | 30662 ft | 414 kts | 349° |
| 2026-05-04 13:28 | 46.68009 | 16.20247 | 30422 ft | 411 kts | 349° |
| 2026-05-04 13:28 | 46.70811 | 16.19580 | 29976 ft | 406 kts | 350° |
| 2026-05-04 13:29 | 46.73590 | 16.18915 | 29424 ft | 403 kts | 349° |
| 2026-05-04 13:29 | 46.76337 | 16.18257 | 28903 ft | 398 kts | 349° |
| 2026-05-04 13:29 | 46.79060 | 16.17606 | 28390 ft | 394 kts | 349° |
| 2026-05-04 13:29 | 46.81752 | 16.16962 | 27889 ft | 391 kts | 350° |
| 2026-05-04 13:30 | 46.84423 | 16.16324 | 27393 ft | 387 kts | 349° |
| 2026-05-04 13:30 | 46.87070 | 16.15690 | 26919 ft | 384 kts | 349° |
| 2026-05-04 13:30 | 46.89700 | 16.15059 | 26452 ft | 381 kts | 348° |
| 2026-05-04 13:30 | 46.92306 | 16.14430 | 25993 ft | 379 kts | 349° |
| 2026-05-04 13:31 | 46.94899 | 16.13805 | 25544 ft | 376 kts | 349° |
| 2026-05-04 13:31 | 46.97468 | 16.13188 | 25114 ft | 373 kts | 348° |
| 2026-05-04 13:31 | 47.00024 | 16.12573 | 24677 ft | 371 kts | 348° |
| 2026-05-04 13:31 | 47.02560 | 16.11959 | 24245 ft | 368 kts | 348° |
| 2026-05-04 13:32 | 47.05077 | 16.11348 | 23806 ft | 366 kts | 349° |
| 2026-05-04 13:32 | 47.07586 | 16.10739 | 23329 ft | 364 kts | 348° |
| 2026-05-04 13:32 | 47.10075 | 16.10137 | 22869 ft | 361 kts | 347° |
| 2026-05-04 13:32 | 47.12546 | 16.09541 | 22442 ft | 358 kts | 348° |
| 2026-05-04 13:33 | 47.14991 | 16.08953 | 22018 ft | 355 kts | 349° |
| 2026-05-04 13:33 | 47.17425 | 16.08365 | 21576 ft | 353 kts | 349° |
| 2026-05-04 13:33 | 47.19841 | 16.07778 | 21143 ft | 351 kts | 347° |
| 2026-05-04 13:33 | 47.22246 | 16.07189 | 20705 ft | 350 kts | 348° |
| 2026-05-04 13:34 | 47.24647 | 16.06601 | 20252 ft | 349 kts | 348° |
| 2026-05-04 13:34 | 47.27010 | 16.06024 | 19820 ft | 348 kts | 349° |
| 2026-05-04 13:34 | 47.29431 | 16.05431 | 19377 ft | 348 kts | 348° |
| 2026-05-04 13:34 | 47.31786 | 16.04855 | 18945 ft | 348 kts | 347° |
| 2026-05-04 13:35 | 47.34178 | 16.04280 | 18517 ft | 349 kts | 351° |
| 2026-05-04 13:35 | 47.39050 | 16.04709 | 17808 ft | 361 kts | 14° |
| 2026-05-04 13:35 | 47.41475 | 16.05863 | 17643 ft | 368 kts | 17° |
| 2026-05-04 13:36 | 47.43901 | 16.07066 | 17446 ft | 366 kts | 17° |
| 2026-05-04 13:36 | 47.46320 | 16.08261 | 17247 ft | 367 kts | 17° |
| 2026-05-04 13:36 | 47.48745 | 16.09456 | 17058 ft | 367 kts | 17° |
| 2026-05-04 13:36 | 47.51157 | 16.10646 | 16863 ft | 364 kts | 18° |
| 2026-05-04 13:37 | 47.53565 | 16.11837 | 16668 ft | 366 kts | 17° |
| 2026-05-04 13:37 | 47.55980 | 16.13037 | 16478 ft | 365 kts | 17° |
| 2026-05-04 13:37 | 47.58377 | 16.14236 | 16284 ft | 363 kts | 18° |
| 2026-05-04 13:37 | 47.59961 | 16.15031 | 16154 ft | 364 kts | 17° |
| 2026-05-04 13:38 | 47.63145 | 16.16630 | 15905 ft | 362 kts | 18° |
| 2026-05-04 13:38 | 47.65521 | 16.17819 | 15714 ft | 360 kts | 17° |
| 2026-05-04 13:38 | 47.67903 | 16.19008 | 15518 ft | 362 kts | 17° |
| 2026-05-04 13:38 | 47.70276 | 16.20203 | 15320 ft | 359 kts | 20° |
| 2026-05-04 13:39 | 47.71762 | 16.21253 | 15151 ft | 358 kts | 30° |
| 2026-05-04 13:39 | 47.73912 | 16.23152 | 14909 ft | 360 kts | 30° |
| 2026-05-04 13:39 | 47.76749 | 16.25659 | 14581 ft | 356 kts | 30° |
| 2026-05-04 13:39 | 47.78880 | 16.27542 | 14340 ft | 357 kts | 30° |
| 2026-05-04 13:40 | 47.80323 | 16.28821 | 14182 ft | 356 kts | 31° |
| 2026-05-04 13:40 | 47.82440 | 16.30704 | 13940 ft | 353 kts | 31° |
| 2026-05-04 13:40 | 47.85237 | 16.33196 | 13610 ft | 354 kts | 31° |
| 2026-05-04 13:40 | 47.86661 | 16.34465 | 13433 ft | 352 kts | 31° |
| 2026-05-04 13:41 | 47.88754 | 16.36335 | 13165 ft | 351 kts | 31° |
| 2026-05-04 13:41 | 47.90851 | 16.38209 | 12907 ft | 351 kts | 31° |
| 2026-05-04 13:41 | 47.92938 | 16.40070 | 12647 ft | 348 kts | 31° |
| 2026-05-04 13:42 | 47.97083 | 16.43764 | 12134 ft | 346 kts | 31° |
| 2026-05-04 13:42 | 47.99142 | 16.45605 | 11877 ft | 343 kts | 31° |
| 2026-05-04 13:42 | 48.01187 | 16.47443 | 11652 ft | 344 kts | 31° |
| 2026-05-04 13:42 | 48.03233 | 16.49283 | 11404 ft | 342 kts | 31° |
| 2026-05-04 13:43 | 48.05238 | 16.51085 | 11161 ft | 341 kts | 31° |
| 2026-05-04 13:43 | 48.07271 | 16.52909 | 10916 ft | 341 kts | 31° |
| 2026-05-04 13:43 | 48.09299 | 16.54729 | 10674 ft | 339 kts | 31° |
| 2026-05-04 13:43 | 48.11307 | 16.56534 | 10374 ft | 336 kts | 31° |
| 2026-05-04 13:44 | 48.13308 | 16.58336 | 9976 ft | 334 kts | 31° |
| 2026-05-04 13:44 | 48.15257 | 16.60094 | 9818 ft | 318 kts | 31° |
| 2026-05-04 13:44 | 48.17122 | 16.61780 | 9303 ft | 310 kts | 31° |
| 2026-05-04 13:44 | 48.18971 | 16.63396 | 8686 ft | 306 kts | 26° |
| 2026-05-04 13:45 | 48.20935 | 16.64536 | 8075 ft | 300 kts | 13° |
| 2026-05-04 13:45 | 48.22984 | 16.65075 | 7603 ft | 298 kts | 1° |
| 2026-05-04 13:45 | 48.25018 | 16.65030 | 7264 ft | 295 kts | 351° |
| 2026-05-04 13:45 | 48.27015 | 16.64425 | 6957 ft | 291 kts | 342° |
| 2026-05-04 13:46 | 48.28954 | 16.63606 | 6660 ft | 288 kts | 342° |
| 2026-05-04 13:46 | 48.30875 | 16.62794 | 6305 ft | 287 kts | 342° |
| 2026-05-04 13:46 | 48.32788 | 16.61926 | 5913 ft | 287 kts | 340° |
| 2026-05-04 13:46 | 48.34707 | 16.61036 | 5464 ft | 289 kts | 341° |
| 2026-05-04 13:47 | 48.36581 | 16.60019 | 5213 ft | 283 kts | 328° |
| 2026-05-04 13:47 | 48.38022 | 16.58086 | 4964 ft | 277 kts | 300° |
| 2026-05-04 13:47 | 48.38687 | 16.55438 | 4719 ft | 270 kts | 272° |
| 2026-05-04 13:47 | 48.38489 | 16.52680 | 4473 ft | 264 kts | 252° |
| 2026-05-04 13:48 | 48.37881 | 16.50136 | 4213 ft | 252 kts | 233° |
| 2026-05-04 13:48 | 48.36646 | 16.48445 | 4037 ft | 234 kts | 201° |
| 2026-05-04 13:48 | 48.35123 | 16.48050 | 3990 ft | 215 kts | 172° |
| 2026-05-04 13:48 | 48.33693 | 16.48569 | 3994 ft | 213 kts | 164° |
| 2026-05-04 13:49 | 48.32274 | 16.49184 | 3993 ft | 211 kts | 163° |
| 2026-05-04 13:49 | 48.30867 | 16.49788 | 3993 ft | 205 kts | 164° |
| 2026-05-04 13:49 | 48.29544 | 16.50352 | 3974 ft | 192 kts | 163° |
| 2026-05-04 13:49 | 48.28260 | 16.50899 | 3823 ft | 191 kts | 163° |
| 2026-05-04 13:50 | 48.27001 | 16.51435 | 3636 ft | 185 kts | 166° |
| 2026-05-04 13:50 | 48.25783 | 16.51955 | 3382 ft | 179 kts | 166° |
| 2026-05-04 13:50 | 48.24601 | 16.52458 | 3146 ft | 173 kts | 166° |
| 2026-05-04 13:50 | 48.23454 | 16.52946 | 2919 ft | 169 kts | 166° |
| 2026-05-04 13:51 | 48.22338 | 16.53420 | 2707 ft | 165 kts | 165° |
| 2026-05-04 13:51 | 48.21257 | 16.53880 | 2492 ft | 157 kts | 165° |
| 2026-05-04 13:51 | 48.20238 | 16.54313 | 2303 ft | 147 kts | 165° |
| 2026-05-04 13:51 | 48.19289 | 16.54716 | 2135 ft | 138 kts | 165° |
| 2026-05-04 13:52 | 48.17507 | 16.55460 | 1756 ft | 131 kts | 165° |
| 2026-05-04 13:52 | 48.16639 | 16.55836 | 1589 ft | 129 kts | 164° |
| 2026-05-04 13:52 | 48.15773 | 16.56209 | 1405 ft | 129 kts | 164° |
| 2026-05-04 13:53 | 48.14910 | 16.56564 | 1223 ft | 130 kts | 163° |
| 2026-05-04 13:53 | 48.14041 | 16.56921 | 1036 ft | 128 kts | 161° |
| 2026-05-04 13:53 | 48.13191 | 16.57298 | 863 ft | 129 kts | 162° |
| 2026-05-04 13:54 | 48.11472 | 16.58030 | 628 ft | 124 kts | 163° |
| 2026-05-04 13:54 | 48.10772 | 16.58330 | 612 ft | 81 kts | 164° |
| 2026-05-04 13:54 | 48.10141 | 16.58593 | 619 ft | 31 kts | 164° |
| 2026-05-04 13:55 | 48.10023 | 16.58600 | 620 ft | 14 kts | 245° |
| 2026-05-04 13:55 | 48.10111 | 16.58365 | 618 ft | 12 kts | 303° |
| 2026-05-04 13:55 | 48.10206 | 16.58287 | 616 ft | 24 kts | 347° |
| 2026-05-04 13:56 | 48.10367 | 16.58220 | 621 ft | 23 kts | 344° |
| 2026-05-04 13:56 | 48.10518 | 16.58156 | 613 ft | 22 kts | 344° |
| 2026-05-04 13:56 | 48.10798 | 16.58037 | 614 ft | 21 kts | 344° |
| 2026-05-04 13:57 | 48.10930 | 16.57970 | 620 ft | 19 kts | 326° |
| 2026-05-04 13:57 | 48.11020 | 16.57833 | 611 ft | 18 kts | 310° |
| 2026-05-04 13:58 | 48.11168 | 16.57399 | 618 ft | 14 kts | 295° |
| 2026-05-04 13:58 | 48.11263 | 16.57107 | 621 ft | 18 kts | 296° |
| 2026-05-04 13:58 | 48.11323 | 16.56926 | 618 ft | 20 kts | 296° |
| 2026-05-04 13:59 | 48.11381 | 16.56748 | 617 ft | 18 kts | 296° |
| 2026-05-04 13:59 | 48.11435 | 16.56583 | 622 ft | 17 kts | 296° |
| 2026-05-04 13:59 | 48.11531 | 16.56283 | 619 ft | 15 kts | 295° |
| 2026-05-04 14:00 | 48.11593 | 16.56185 | 620 ft | 13 kts | 360° |
| 2026-05-04 14:00 | 48.11732 | 16.56298 | 622 ft | 10 kts | 25° |
| 2026-05-04 14:00 | 48.11758 | 16.56375 | 615 ft | 9 kts | 104° |
| 2026-05-04 14:01 | 48.11728 | 16.56460 | 617 ft | 9 kts | 121° |
| 2026-05-04 14:01 | 48.11667 | 16.56453 | 611 ft | 11 kts | 207° |
| 2026-05-04 14:01 | 48.11651 | 16.56441 | 611 ft | 0 kts | 206° |